Time;durP1;ratioP1;P1;durP2;ratioP2;P2;SDS_P1;SDS_P2;PMS_P1;PMS_P2;Temp;Humidity;BMP_temperature;BMP_pressure;BME280_temperature;BME280_humidity;BME280_pressure;Samples;Min_cycle;Max_cycle;Signal;HPM_P1;HPM_P2
2024/02/20 00:01:39;;;;;;;81.80;50.60;;;9.10;98.90;;;;;;5053719;28;20232;-57
2024/02/20 00:04:10;;;;;;;74.70;49.87;;;9.10;98.90;;;;;;5056064;28;20637;-57
2024/02/20 00:06:38;;;;;;;77.87;52.13;;;9.00;98.90;;;;;;5053669;28;20530;-57
2024/02/20 00:09:07;;;;;;;77.63;49.67;;;9.00;98.90;;;;;;5053678;28;20554;-57
2024/02/20 00:11:35;;;;;;;70.57;47.67;;;8.90;99.10;;;;;;5047490;28;20200;-57
2024/02/20 00:14:05;;;;;;;81.77;49.70;;;8.90;99.20;;;;;;5052204;28;20201;-57
2024/02/20 00:16:32;;;;;;;67.37;44.30;;;8.90;99.40;;;;;;5052382;28;20284;-57
2024/02/20 00:18:59;;;;;;;57.60;40.30;;;8.90;99.40;;;;;;5049040;28;20208;-57
2024/02/20 00:21:26;;;;;;;74.27;50.70;;;8.90;99.40;;;;;;5051372;28;20255;-57
2024/02/20 00:23:53;;;;;;;66.80;45.60;;;8.90;99.50;;;;;;5048314;28;20219;-57
2024/02/20 00:26:20;;;;;;;76.07;48.70;;;8.90;99.40;;;;;;5048898;28;20201;-57
2024/02/20 00:28:47;;;;;;;71.27;47.47;;;8.80;99.30;;;;;;5051153;28;20206;-57
2024/02/20 00:31:15;;;;;;;67.17;45.70;;;8.80;99.20;;;;;;5047866;28;20215;-57
2024/02/20 00:33:42;;;;;;;69.57;43.50;;;8.70;99.20;;;;;;5051749;28;20245;-57
2024/02/20 00:36:10;;;;;;;77.47;50.17;;;8.70;99.20;;;;;;5052154;28;20201;-57
2024/02/20 00:38:37;;;;;;;74.23;49.70;;;8.60;99.20;;;;;;5049210;28;20198;-57
2024/02/20 00:41:04;;;;;;;72.10;48.50;;;8.60;99.30;;;;;;5051457;28;20219;-57
2024/02/20 00:43:31;;;;;;;71.37;49.37;;;8.60;99.30;;;;;;5052844;28;20199;-57
2024/02/20 00:46:01;;;;;;;74.30;50.70;;;8.50;99.20;;;;;;5051610;28;20201;-57
2024/02/20 00:48:29;;;;;;;76.57;50.47;;;8.50;99.20;;;;;;5052105;28;20237;-57
2024/02/20 00:50:57;;;;;;;65.43;45.50;;;8.50;99.20;;;;;;5052858;28;20265;-57
2024/02/20 00:53:24;;;;;;;75.13;47.70;;;8.50;99.20;;;;;;5051222;28;20622;-57
2024/02/20 00:55:51;;;;;;;71.07;46.77;;;8.50;99.20;;;;;;5052566;28;20238;-57
2024/02/20 00:58:18;;;;;;;68.93;44.67;;;8.40;99.20;;;;;;5050978;28;20204;-57
2024/02/20 01:00:47;;;;;;;69.63;44.47;;;8.40;99.20;;;;;;5046292;28;20226;-57
2024/02/20 01:03:15;;;;;;;70.57;45.20;;;8.40;99.30;;;;;;5051353;28;20628;-57
2024/02/20 01:05:42;;;;;;;64.67;43.67;;;8.40;99.30;;;;;;5050258;28;20628;-57
2024/02/20 01:08:09;;;;;;;64.40;42.87;;;8.30;99.20;;;;;;5049559;28;20693;-57
2024/02/20 01:10:37;;;;;;;63.17;44.30;;;8.30;99.10;;;;;;5050175;28;20251;-57
2024/02/20 01:13:04;;;;;;;71.13;44.10;;;8.20;99.30;;;;;;5048194;28;20219;-57
2024/02/20 01:15:31;;;;;;;70.90;44.63;;;8.20;99.10;;;;;;5051696;28;20213;-57
2024/02/20 01:18:00;;;;;;;71.20;46.07;;;8.20;99.10;;;;;;5050994;28;20812;-57
2024/02/20 01:20:27;;;;;;;65.50;42.83;;;8.20;99.10;;;;;;5049005;28;20302;-57
2024/02/20 01:22:55;;;;;;;64.30;43.50;;;8.20;99.10;;;;;;5051968;28;20646;-57
2024/02/20 01:25:22;;;;;;;55.20;38.37;;;8.10;99.10;;;;;;5049696;28;20200;-57
2024/02/20 01:27:49;;;;;;;54.30;38.93;;;8.10;99.00;;;;;;5050954;28;20692;-57
2024/02/20 01:30:16;;;;;;;60.03;41.77;;;8.10;98.90;;;;;;5051138;28;20204;-57
2024/02/20 01:32:43;;;;;;;62.43;43.37;;;8.00;98.90;;;;;;5050506;28;20218;-57
2024/02/20 01:35:10;;;;;;;66.13;42.57;;;8.00;99.00;;;;;;5051885;28;20296;-57
2024/02/20 01:37:37;;;;;;;52.27;37.93;;;8.00;99.10;;;;;;5050425;28;20198;-57
2024/02/20 01:40:05;;;;;;;69.23;46.07;;;8.00;99.10;;;;;;5052578;28;20203;-57
2024/02/20 01:42:35;;;;;;;56.27;40.57;;;8.00;99.10;;;;;;5048872;28;20234;-57
2024/02/20 01:45:02;;;;;;;52.83;38.27;;;7.90;99.20;;;;;;5045907;28;20205;-57
2024/02/20 01:47:29;;;;;;;60.60;38.13;;;8.00;99.30;;;;;;5049541;28;20188;-57
2024/02/20 01:49:58;;;;;;;71.57;45.40;;;8.00;99.30;;;;;;5045397;28;20212;-57
2024/02/20 01:52:25;;;;;;;68.77;43.83;;;8.00;99.30;;;;;;5050252;28;20214;-57
2024/02/20 01:54:59;;;;;;;66.97;42.67;;;8.00;99.20;;;;;;5047527;28;20636;-57
2024/02/20 01:57:27;;;;;;;78.03;47.63;;;7.90;99.20;;;;;;5045729;28;20199;-57
2024/02/20 01:59:55;;;;;;;78.70;49.67;;;7.90;99.20;;;;;;5050928;28;20253;-58
2024/02/20 02:02:22;;;;;;;62.70;42.33;;;7.90;99.30;;;;;;5047625;28;20569;-57
2024/02/20 02:04:49;;;;;;;58.87;39.23;;;7.90;99.40;;;;;;5050589;28;20193;-57
2024/02/20 02:07:16;;;;;;;63.47;40.90;;;7.90;99.50;;;;;;5049538;28;20225;-57
2024/02/20 02:09:44;;;;;;;59.23;42.17;;;7.90;99.50;;;;;;5051242;28;20533;-57
2024/02/20 02:12:11;;;;;;;69.57;45.47;;;8.00;99.50;;;;;;5050432;28;20219;-57
2024/02/20 02:14:45;;;;;;;72.07;47.03;;;8.00;99.50;;;;;;5048924;28;20203;-57
2024/02/20 02:17:13;;;;;;;57.30;38.37;;;8.00;99.50;;;;;;5049399;28;20227;-57
2024/02/20 02:19:41;;;;;;;53.13;34.83;;;8.00;99.40;;;;;;5051575;28;20208;-57
2024/02/20 02:22:08;;;;;;;63.60;40.23;;;8.00;99.20;;;;;;5049304;28;20246;-57
2024/02/20 02:24:36;;;;;;;57.90;40.23;;;8.00;98.90;;;;;;5052056;28;20199;-57
2024/02/20 02:27:04;;;;;;;59.73;40.73;;;7.90;98.80;;;;;;5048414;28;20209;-57
2024/02/20 02:29:31;;;;;;;63.73;42.23;;;8.00;98.90;;;;;;5050513;28;20203;-57
2024/02/20 02:31:58;;;;;;;59.93;41.00;;;8.00;99.00;;;;;;5042662;28;20206;-57
2024/02/20 02:34:29;;;;;;;54.70;38.50;;;8.00;99.00;;;;;;5049365;28;20235;-57
2024/02/20 02:36:56;;;;;;;57.47;38.13;;;8.00;99.00;;;;;;5049751;28;20214;-57
2024/02/20 02:39:24;;;;;;;70.10;45.20;;;8.00;98.90;;;;;;5046592;28;20204;-57
2024/02/20 02:41:51;;;;;;;62.73;42.00;;;7.90;98.80;;;;;;5047089;28;20230;-57
2024/02/20 02:44:19;;;;;;;64.20;41.93;;;7.90;98.80;;;;;;5049177;28;20197;-57
2024/02/20 02:46:46;;;;;;;68.60;46.60;;;7.90;98.90;;;;;;5048048;28;20199;-57
2024/02/20 02:49:13;;;;;;;73.57;46.47;;;7.90;98.90;;;;;;5047715;28;20220;-57
2024/02/20 02:51:40;;;;;;;66.13;44.73;;;7.90;98.90;;;;;;5047686;28;20290;-56
2024/02/20 02:54:08;;;;;;;75.90;49.87;;;7.90;98.90;;;;;;5051016;28;20874;-57
2024/02/20 02:56:36;;;;;;;92.70;55.03;;;7.90;99.00;;;;;;5047669;28;20571;-57
2024/02/20 02:59:04;;;;;;;95.30;55.77;;;7.90;99.10;;;;;;5050363;28;20544;-57
2024/02/20 03:01:31;;;;;;;90.13;56.13;;;7.90;99.20;;;;;;5047964;28;20274;-56
2024/02/20 03:04:00;;;;;;;97.60;55.17;;;8.00;99.30;;;;;;5047401;28;20206;-57
2024/02/20 03:06:27;;;;;;;93.37;56.77;;;8.00;99.40;;;;;;5050445;28;20283;-56
2024/02/20 03:08:54;;;;;;;95.90;56.03;;;8.10;99.50;;;;;;5048406;28;20201;-57
2024/02/20 03:11:21;;;;;;;97.37;56.70;;;8.10;99.50;;;;;;5049804;28;20630;-56
2024/02/20 03:13:49;;;;;;;99.33;59.57;;;8.10;99.50;;;;;;5048955;28;20201;-56
2024/02/20 03:16:16;;;;;;;98.10;57.70;;;8.10;99.50;;;;;;5052515;28;21085;-57
2024/02/20 03:18:43;;;;;;;103.87;62.00;;;8.10;99.60;;;;;;5047501;28;20218;-59
2024/02/20 03:21:11;;;;;;;107.87;63.13;;;8.20;99.60;;;;;;5051388;28;20651;-57
2024/02/20 03:23:38;;;;;;;109.33;64.33;;;8.20;99.70;;;;;;5051701;28;20202;-57
2024/02/20 03:26:05;;;;;;;116.17;65.40;;;8.20;99.70;;;;;;5051661;28;20261;-57
2024/02/20 03:28:32;;;;;;;117.30;69.00;;;8.20;99.70;;;;;;5051335;28;20279;-57
2024/02/20 03:31:00;;;;;;;110.30;65.30;;;8.30;99.80;;;;;;5054073;28;20231;-57
2024/02/20 03:33:30;;;;;;;115.17;67.77;;;8.30;99.80;;;;;;5050570;28;20292;-57
2024/02/20 03:35:57;;;;;;;124.13;67.50;;;8.30;99.70;;;;;;5051716;28;20202;-57
2024/02/20 03:38:25;;;;;;;115.87;67.90;;;8.30;99.70;;;;;;5052343;28;20217;-57
2024/02/20 03:40:52;;;;;;;107.97;64.70;;;8.30;99.80;;;;;;5051464;28;20227;-57
2024/02/20 03:43:19;;;;;;;127.77;74.90;;;8.30;99.80;;;;;;5053057;28;20657;-57
2024/02/20 03:45:46;;;;;;;118.57;70.63;;;8.30;99.80;;;;;;5052881;28;20194;-57
2024/02/20 03:48:13;;;;;;;114.00;66.70;;;8.40;99.80;;;;;;5053467;28;20194;-57
2024/02/20 03:50:41;;;;;;;118.17;67.63;;;8.40;99.80;;;;;;5053990;28;20192;-57
2024/02/20 03:53:08;;;;;;;125.57;69.37;;;8.40;99.80;;;;;;5054581;28;20235;-57
2024/02/20 03:55:36;;;;;;;119.60;69.03;;;8.30;99.80;;;;;;5053455;28;20197;-57
2024/02/20 03:58:04;;;;;;;119.17;70.10;;;8.40;99.70;;;;;;5052989;28;20206;-57
2024/02/20 04:00:31;;;;;;;119.43;73.13;;;8.30;99.60;;;;;;5053255;28;20583;-57
2024/02/20 04:02:58;;;;;;;124.50;76.23;;;8.30;99.60;;;;;;5052423;28;20205;-57
2024/02/20 04:05:26;;;;;;;120.57;71.20;;;8.20;99.70;;;;;;5048040;28;20210;-58
2024/02/20 04:07:54;;;;;;;118.93;70.27;;;8.20;99.70;;;;;;5051907;28;20208;-58
2024/02/20 04:10:21;;;;;;;116.00;65.77;;;8.20;99.70;;;;;;5048309;28;20561;-57
2024/02/20 04:12:48;;;;;;;121.37;69.70;;;8.20;99.80;;;;;;5052356;28;20280;-57
2024/02/20 04:15:16;;;;;;;113.20;66.47;;;8.10;99.80;;;;;;5050119;28;20244;-57
2024/02/20 04:17:43;;;;;;;118.43;67.60;;;8.10;99.70;;;;;;5050123;28;20192;-57
2024/02/20 04:20:11;;;;;;;135.73;74.60;;;8.10;99.80;;;;;;5051092;28;20201;-57
2024/02/20 04:22:39;;;;;;;103.53;58.97;;;8.00;99.90;;;;;;5051208;28;20208;-57
2024/02/20 04:25:07;;;;;;;114.70;63.57;;;8.00;99.80;;;;;;5048254;28;20194;-57
2024/02/20 04:27:36;;;;;;;108.77;61.60;;;8.00;99.70;;;;;;5052951;28;20203;-57
2024/02/20 04:30:04;;;;;;;111.87;63.67;;;7.90;99.70;;;;;;5048992;28;20196;-57
2024/02/20 04:32:33;;;;;;;110.13;61.73;;;7.90;99.70;;;;;;5054398;28;20202;-57
2024/02/20 04:35:05;;;;;;;123.10;67.87;;;7.80;99.70;;;;;;5051914;28;20749;-59
2024/02/20 04:37:34;;;;;;;119.80;67.60;;;7.80;99.80;;;;;;5052487;28;20203;-60
2024/02/20 04:40:08;;;;;;;117.80;66.07;;;7.70;99.80;;;;;;5048484;28;20234;-58
2024/02/20 04:42:40;;;;;;;95.90;57.37;;;7.70;99.90;;;;;;5054304;28;20207;-58
2024/02/20 04:45:11;;;;;;;90.53;57.60;;;7.70;99.90;;;;;;5054187;28;20191;-58
2024/02/20 04:47:40;;;;;;;106.33;63.70;;;7.70;99.70;;;;;;5052045;28;20203;-57
2024/02/20 04:50:07;;;;;;;108.77;61.67;;;7.60;99.70;;;;;;5049117;28;20191;-58
2024/02/20 04:52:36;;;;;;;107.47;63.97;;;7.60;99.70;;;;;;5054581;28;20309;-57
2024/02/20 04:55:09;;;;;;;98.97;57.87;;;7.60;99.80;;;;;;5053562;28;20213;-58
2024/02/20 04:57:41;;;;;;;80.70;51.00;;;7.50;99.80;;;;;;5047285;28;20203;-58
2024/02/20 05:00:12;;;;;;;84.80;51.63;;;7.50;99.70;;;;;;5033612;28;20200;-58
2024/02/20 05:02:43;;;;;;;93.80;57.13;;;7.40;99.60;;;;;;5050920;28;20275;-58
2024/02/20 05:05:10;;;;;;;92.63;58.57;;;7.40;99.50;;;;;;5053228;28;20201;-58
2024/02/20 05:07:38;;;;;;;100.60;59.80;;;7.30;99.40;;;;;;5052637;28;20522;-58
2024/02/20 05:10:09;;;;;;;112.43;61.13;;;7.30;99.50;;;;;;5044875;28;20204;-58
2024/02/20 05:12:45;;;;;;;103.63;60.33;;;7.20;99.20;;;;;;5053287;28;20573;-58
2024/02/20 05:15:18;;;;;;;107.93;63.00;;;7.20;99.30;;;;;;5049859;28;20228;-58
2024/02/20 05:17:49;;;;;;;111.50;67.40;;;7.20;99.40;;;;;;5053262;28;20208;-58
2024/02/20 05:20:16;;;;;;;101.70;59.00;;;7.20;99.50;;;;;;5050747;28;20234;-58
2024/02/20 05:22:48;;;;;;;71.17;47.53;;;7.10;99.50;;;;;;5051839;28;20227;-59
2024/02/20 05:25:16;;;;;;;83.87;48.83;;;7.10;99.50;;;;;;5050595;28;20621;-59
2024/02/20 05:27:45;;;;;;;99.37;44.77;;;7.10;99.50;;;;;;5053307;28;20237;-59
2024/02/20 05:30:15;;;;;;;67.67;44.47;;;7.10;99.60;;;;;;5036866;28;20222;-59
2024/02/20 05:32:44;;;;;;;73.97;47.90;;;7.00;99.60;;;;;;5052451;28;20311;-59
2024/02/20 05:35:13;;;;;;;74.60;45.57;;;7.00;99.60;;;;;;5053167;28;20292;-58
2024/02/20 05:37:41;;;;;;;70.17;44.57;;;7.00;99.50;;;;;;5051647;28;20222;-58
2024/02/20 05:40:12;;;;;;;67.87;46.43;;;7.00;99.50;;;;;;5050993;28;20212;-58
2024/02/20 05:42:45;;;;;;;60.63;44.43;;;6.90;99.40;;;;;;5054952;28;20219;-59
2024/02/20 05:45:16;;;;;;;67.50;46.17;;;6.90;99.40;;;;;;5047807;28;20269;-59
2024/02/20 05:47:46;;;;;;;76.60;47.00;;;6.90;99.40;;;;;;5051788;28;20635;-59
2024/02/20 05:50:15;;;;;;;64.60;42.10;;;6.90;99.30;;;;;;5051057;28;20289;-59
2024/02/20 05:52:44;;;;;;;59.23;40.27;;;6.90;99.20;;;;;;5051892;28;20710;-59
2024/02/20 05:55:13;;;;;;;59.47;41.90;;;6.90;99.30;;;;;;5050988;28;20196;-58
2024/02/20 05:57:43;;;;;;;64.47;44.13;;;6.90;99.40;;;;;;5050651;28;20255;-59
2024/02/20 06:00:12;;;;;;;69.43;46.77;;;6.90;99.40;;;;;;5046646;28;20207;-58
2024/02/20 06:02:43;;;;;;;77.40;48.13;;;6.90;99.50;;;;;;5049697;28;20218;-58
2024/02/20 06:05:12;;;;;;;68.70;45.23;;;6.90;99.40;;;;;;5052682;28;20201;-58
2024/02/20 06:07:43;;;;;;;79.73;52.50;;;6.90;99.40;;;;;;5051918;28;20292;-58
2024/02/20 06:10:16;;;;;;;84.50;51.63;;;6.90;99.30;;;;;;5037186;28;20205;-58
2024/02/20 06:12:47;;;;;;;281.00;57.03;;;6.90;99.40;;;;;;5051379;28;20299;-58
2024/02/20 06:15:19;;;;;;;87.57;49.63;;;6.80;99.40;;;;;;5035775;28;20218;-58
2024/02/20 06:17:49;;;;;;;79.60;51.13;;;6.80;99.50;;;;;;5049004;28;20520;-59
2024/02/20 06:20:17;;;;;;;68.10;44.57;;;6.80;99.60;;;;;;5050537;28;20285;-58
2024/02/20 06:22:47;;;;;;;71.83;46.80;;;6.90;99.70;;;;;;5052652;28;20218;-58
2024/02/20 06:25:18;;;;;;;73.70;46.87;;;6.80;99.60;;;;;;5035094;28;20199;-58
2024/02/20 06:27:46;;;;;;;70.07;44.40;;;6.80;99.60;;;;;;5050535;28;20207;-58
2024/02/20 06:30:17;;;;;;;74.77;47.53;;;6.80;99.60;;;;;;5049261;28;20216;-58
2024/02/20 06:32:47;;;;;;;85.20;52.43;;;6.80;99.60;;;;;;5047914;28;20209;-58
2024/02/20 06:35:17;;;;;;;83.77;51.13;;;6.80;99.60;;;;;;5048538;28;20592;-58
2024/02/20 06:37:45;;;;;;;78.60;50.10;;;6.80;99.60;;;;;;5051439;28;20256;-58
2024/02/20 06:40:15;;;;;;;96.10;54.80;;;6.80;99.50;;;;;;5048451;28;20211;-58
2024/02/20 06:42:46;;;;;;;86.80;55.13;;;6.80;99.60;;;;;;5030504;28;20214;-58
2024/02/20 06:45:15;;;;;;;98.50;58.57;;;6.80;99.60;;;;;;5027032;28;20258;-58
2024/02/20 06:47:43;;;;;;;96.97;57.67;;;6.80;99.60;;;;;;5050263;28;20199;-58
2024/02/20 06:50:14;;;;;;;101.40;62.37;;;6.80;99.70;;;;;;5050070;28;20195;-58
2024/02/20 06:52:43;;;;;;;106.30;59.90;;;6.90;99.80;;;;;;5053364;28;20207;-58
2024/02/20 06:55:11;;;;;;;100.57;60.33;;;6.90;99.80;;;;;;5055261;28;20192;-58
2024/02/20 06:57:40;;;;;;;112.10;60.60;;;7.00;99.90;;;;;;5055897;28;20699;-58
2024/02/20 07:00:12;;;;;;;111.73;63.40;;;7.00;99.90;;;;;;5054912;28;20643;-58
2024/02/20 07:02:41;;;;;;;114.13;65.20;;;7.10;99.90;;;;;;5054520;28;20620;-58
2024/02/20 07:05:12;;;;;;;106.87;61.13;;;7.20;99.90;;;;;;5056778;28;20203;-58
2024/02/20 07:07:44;;;;;;;110.00;63.83;;;7.30;99.90;;;;;;5056334;28;20213;-58
2024/02/20 07:10:13;;;;;;;109.00;61.77;;;7.40;99.90;;;;;;5054823;28;20287;-58
2024/02/20 07:12:44;;;;;;;111.37;62.63;;;7.50;99.90;;;;;;5035125;28;20282;-58
2024/02/20 07:15:13;;;;;;;111.07;65.37;;;7.50;99.90;;;;;;5055059;28;20210;-59
2024/02/20 07:17:44;;;;;;;114.47;65.93;;;7.60;99.90;;;;;;5052998;28;20218;-58
2024/02/20 07:20:14;;;;;;;111.50;64.37;;;7.60;99.90;;;;;;5054796;28;20207;-59
2024/02/20 07:22:43;;;;;;;107.80;63.83;;;7.70;99.90;;;;;;5049588;28;20234;-58
2024/02/20 07:25:19;;;;;;;112.73;63.73;;;7.90;99.90;;;;;;5045884;28;20203;-58
2024/02/20 07:27:49;;;;;;;109.47;66.73;;;8.00;99.90;;;;;;5055875;28;20207;-58
2024/02/20 07:30:18;;;;;;;112.17;68.87;;;8.30;99.90;;;;;;5051155;28;20624;-58
2024/02/20 07:32:47;;;;;;;135.20;79.13;;;8.50;99.80;;;;;;5050303;28;20216;-58
2024/02/20 07:35:17;;;;;;;142.70;80.83;;;8.70;99.70;;;;;;5051948;28;20191;-58
2024/02/20 07:37:48;;;;;;;148.57;84.63;;;8.90;99.60;;;;;;5052609;28;20230;-58
2024/02/20 07:40:19;;;;;;;150.30;87.00;;;9.20;99.50;;;;;;5046589;28;20658;-58
2024/02/20 07:42:49;;;;;;;153.00;86.60;;;9.40;99.40;;;;;;5054885;28;20316;-58
2024/02/20 07:45:18;;;;;;;145.67;85.10;;;9.70;99.20;;;;;;5053913;28;20686;-58
2024/02/20 07:47:48;;;;;;;146.47;88.37;;;9.90;99.00;;;;;;5054579;28;20232;-58
2024/02/20 07:50:17;;;;;;;150.37;86.53;;;10.10;98.70;;;;;;5054888;28;20203;-58
2024/02/20 07:52:45;;;;;;;147.97;88.87;;;10.30;98.60;;;;;;5052761;28;20196;-58
2024/02/20 07:55:14;;;;;;;148.77;88.53;;;10.40;98.40;;;;;;5046171;28;20585;-58
2024/02/20 07:57:41;;;;;;;142.97;85.07;;;10.60;98.30;;;;;;5054795;28;20198;-58
2024/02/20 08:00:13;;;;;;;144.00;83.30;;;10.70;98.20;;;;;;5054445;28;20292;-58
2024/02/20 08:02:41;;;;;;;146.43;83.67;;;10.80;98.20;;;;;;5053194;28;20233;-58
2024/02/20 08:05:12;;;;;;;140.60;83.30;;;11.00;98.30;;;;;;5053668;28;20695;-59
2024/02/20 08:07:42;;;;;;;142.07;86.30;;;11.00;98.20;;;;;;5052851;28;20954;-58
2024/02/20 08:10:12;;;;;;;149.30;84.27;;;11.20;98.30;;;;;;5030881;28;20575;-58
2024/02/20 08:12:41;;;;;;;137.90;83.03;;;11.30;98.20;;;;;;5050108;28;20244;-58
2024/02/20 08:15:09;;;;;;;136.00;84.17;;;11.40;98.10;;;;;;5051454;28;20237;-58
2024/02/20 08:17:37;;;;;;;135.53;82.47;;;11.50;98.00;;;;;;5054324;28;20197;-58
2024/02/20 08:20:05;;;;;;;146.87;88.33;;;11.60;97.80;;;;;;5053060;28;20654;-58
2024/02/20 08:22:34;;;;;;;138.07;85.13;;;11.70;97.70;;;;;;5036526;28;20525;-58
2024/02/20 08:25:01;;;;;;;135.43;83.47;;;11.80;97.50;;;;;;5054848;28;20206;-58
2024/02/20 08:27:30;;;;;;;137.77;84.80;;;11.90;97.30;;;;;;5051746;28;20187;-58
2024/02/20 08:29:58;;;;;;;138.97;83.83;;;12.00;97.20;;;;;;5051216;28;20551;-58
2024/02/20 08:32:26;;;;;;;130.93;82.97;;;12.10;97.20;;;;;;5051229;28;20657;-58
2024/02/20 08:34:55;;;;;;;133.63;82.97;;;12.20;97.00;;;;;;5053158;28;20332;-58
2024/02/20 08:37:23;;;;;;;129.33;83.67;;;12.30;96.80;;;;;;5054568;28;20210;-58
2024/02/20 08:39:50;;;;;;;140.17;85.63;;;12.40;96.70;;;;;;5054042;28;20518;-58
2024/02/20 08:42:18;;;;;;;131.00;84.47;;;12.40;96.60;;;;;;5052885;28;20215;-58
2024/02/20 08:44:46;;;;;;;133.60;82.87;;;12.50;96.50;;;;;;5050107;28;20522;-58
2024/02/20 08:47:13;;;;;;;134.10;84.27;;;12.60;96.70;;;;;;5052405;28;20629;-58
2024/02/20 08:49:40;;;;;;;129.53;85.80;;;12.70;96.00;;;;;;5050769;28;20198;-58
2024/02/20 08:52:08;;;;;;;136.63;85.57;;;12.80;95.90;;;;;;5047995;28;20213;-58
2024/02/20 08:54:35;;;;;;;134.90;83.50;;;12.90;95.90;;;;;;5051164;28;20295;-58
2024/02/20 08:57:02;;;;;;;137.73;85.73;;;12.90;95.50;;;;;;5052221;28;20635;-58
2024/02/20 08:59:30;;;;;;;138.70;82.50;;;13.00;95.10;;;;;;5050139;28;20203;-59
2024/02/20 09:01:57;;;;;;;134.63;84.87;;;13.00;95.00;;;;;;5053820;28;20602;-58
2024/02/20 09:04:27;;;;;;;133.63;86.13;;;13.00;95.00;;;;;;5052517;28;20285;-58
2024/02/20 09:06:56;;;;;;;132.17;83.83;;;13.00;95.10;;;;;;5051890;28;20562;-59
2024/02/20 09:09:23;;;;;;;130.00;83.30;;;13.10;95.10;;;;;;5045622;28;20601;-58
2024/02/20 09:11:51;;;;;;;134.27;83.37;;;13.20;95.20;;;;;;5051162;28;20198;-58
2024/02/20 09:14:21;;;;;;;137.63;87.20;;;13.20;95.00;;;;;;5052594;28;20201;-58
2024/02/20 09:16:54;;;;;;;143.97;88.23;;;13.30;94.90;;;;;;5053162;28;20697;-58
2024/02/20 09:19:22;;;;;;;137.33;87.27;;;13.30;94.70;;;;;;5052741;28;20263;-59
2024/02/20 09:21:50;;;;;;;138.23;87.47;;;13.40;94.70;;;;;;5053181;28;20210;-58
2024/02/20 09:24:19;;;;;;;136.77;89.67;;;13.40;94.70;;;;;;5053038;28;20658;-59
2024/02/20 09:26:46;;;;;;;141.73;88.40;;;13.40;94.70;;;;;;5053532;28;20202;-59
2024/02/20 09:29:14;;;;;;;145.43;89.17;;;13.50;94.60;;;;;;5051211;28;20608;-59
2024/02/20 09:31:42;;;;;;;136.77;86.73;;;13.50;94.70;;;;;;5051373;28;20642;-59
2024/02/20 09:34:10;;;;;;;148.37;86.73;;;13.50;94.80;;;;;;5048226;28;20630;-59
2024/02/20 09:36:41;;;;;;;145.77;93.00;;;13.50;94.80;;;;;;5051296;28;20199;-59
2024/02/20 09:39:09;;;;;;;143.50;87.93;;;13.30;94.60;;;;;;5049959;28;20211;-58
2024/02/20 09:41:39;;;;;;;152.07;92.83;;;13.30;94.90;;;;;;5046629;28;20206;-59
2024/02/20 09:44:08;;;;;;;138.20;86.93;;;13.30;95.30;;;;;;5051520;28;20218;-59
2024/02/20 09:46:46;;;;;;;143.93;89.30;;;13.30;95.70;;;;;;5053081;28;20572;-59
2024/02/20 09:49:15;;;;;;;157.60;94.57;;;13.30;95.70;;;;;;5048801;28;20198;-59
2024/02/20 09:51:43;;;;;;;137.93;86.07;;;13.30;95.70;;;;;;5052618;28;20251;-59
2024/02/20 09:54:11;;;;;;;141.93;87.77;;;13.30;95.60;;;;;;5052035;28;20202;-59
2024/02/20 09:56:41;;;;;;;137.47;87.67;;;13.30;95.40;;;;;;5033457;28;20222;-59
2024/02/20 09:59:10;;;;;;;140.00;85.10;;;13.20;95.40;;;;;;5050707;28;20203;-58
2024/02/20 10:01:39;;;;;;;139.33;87.80;;;13.10;95.30;;;;;;5051019;28;20198;-59
2024/02/20 10:04:08;;;;;;;146.63;89.13;;;13.10;95.40;;;;;;5047664;28;20236;-59
2024/02/20 10:06:38;;;;;;;144.03;88.30;;;13.10;95.90;;;;;;5049243;28;20210;-59
2024/02/20 10:09:06;;;;;;;150.30;89.60;;;13.20;95.80;;;;;;5052097;28;20216;-59
2024/02/20 10:11:37;;;;;;;145.70;90.20;;;13.20;95.80;;;;;;5052856;28;20277;-58
2024/02/20 10:14:05;;;;;;;151.67;91.47;;;13.20;95.80;;;;;;5051879;28;20193;-58
2024/02/20 10:16:34;;;;;;;146.03;93.00;;;13.20;95.90;;;;;;5052672;28;20537;-58
2024/02/20 10:19:04;;;;;;;143.23;87.97;;;13.30;95.90;;;;;;5048655;28;20202;-58
2024/02/20 10:21:32;;;;;;;131.37;86.83;;;13.30;95.60;;;;;;5052687;28;20646;-58
2024/02/20 10:24:09;;;;;;;140.33;87.63;;;13.30;95.60;;;;;;5047614;28;20218;-58
2024/02/20 10:26:47;;;;;;;138.33;86.93;;;13.40;95.50;;;;;;5047701;28;20212;-58
2024/02/20 10:29:17;;;;;;;136.47;86.00;;;13.50;95.40;;;;;;5047893;28;20563;-58
2024/02/20 10:31:44;;;;;;;135.67;87.20;;;13.60;95.50;;;;;;5049916;28;20214;-58
2024/02/20 10:34:19;;;;;;;132.40;86.90;;;13.70;95.30;;;;;;5048994;28;20231;-59
2024/02/20 10:36:47;;;;;;;123.27;80.53;;;13.80;95.30;;;;;;5041979;28;20233;-58
2024/02/20 10:39:19;;;;;;;119.63;78.87;;;13.90;95.10;;;;;;5051920;28;20202;-59
2024/02/20 10:41:46;;;;;;;116.87;74.10;;;14.00;95.00;;;;;;5050956;28;20206;-59
2024/02/20 10:44:18;;;;;;;116.93;75.80;;;14.20;94.90;;;;;;5049543;28;20226;-59
2024/02/20 10:46:49;;;;;;;98.53;66.03;;;14.20;94.70;;;;;;5033984;28;20213;-59
2024/02/20 10:49:33;;;;;;;106.10;67.63;;;14.30;94.20;;;;;;5034489;28;20276;-60
2024/02/20 10:52:05;;;;;;;102.43;69.53;;;14.30;93.80;;;;;;5051634;28;20216;-58
2024/02/20 10:54:33;;;;;;;89.13;62.30;;;14.40;94.10;;;;;;5050036;28;20424;-58
2024/02/20 10:57:14;;;;;;;88.93;60.97;;;14.60;94.00;;;;;;5050984;28;20212;-58
2024/02/20 10:59:47;;;;;;;92.10;62.20;;;14.70;93.70;;;;;;5052195;28;20217;-58
2024/02/20 11:02:15;;;;;;;90.37;60.23;;;14.90;93.30;;;;;;5042970;28;20209;-59
2024/02/20 11:04:43;;;;;;;81.17;55.50;;;14.90;93.20;;;;;;5048010;28;20227;-59
2024/02/20 11:07:11;;;;;;;78.97;56.57;;;15.00;92.90;;;;;;5048513;28;20539;-58
2024/02/20 11:09:38;;;;;;;74.33;52.43;;;15.10;92.90;;;;;;5049648;28;20195;-59
2024/02/20 11:12:08;;;;;;;70.97;50.70;;;15.30;93.00;;;;;;5048460;28;20206;-59
2024/02/20 11:14:36;;;;;;;75.10;52.70;;;15.40;92.80;;;;;;5049188;28;20240;-59
2024/02/20 11:17:14;;;;;;;72.27;49.93;;;15.60;92.50;;;;;;5049498;28;20210;-58
2024/02/20 11:20:09;;;;;;;70.67;49.63;;;15.70;92.30;;;;;;5065974;28;20201;-59
2024/02/20 11:22:37;;;;;;;63.53;45.67;;;15.80;92.20;;;;;;5047738;28;20286;-59
2024/02/20 11:25:09;;;;;;;70.60;48.67;;;15.90;92.10;;;;;;5049933;28;20614;-59
2024/02/20 11:27:47;;;;;;;62.07;46.97;;;16.00;91.60;;;;;;5048041;28;20199;-59
2024/02/20 11:30:19;;;;;;;63.13;46.97;;;16.10;91.40;;;;;;5050724;28;20202;-59
2024/02/20 11:32:57;;;;;;;67.30;50.50;;;16.10;91.50;;;;;;5047338;28;20234;-59
2024/02/20 11:35:32;;;;;;;59.63;43.03;;;16.30;91.50;;;;;;5051728;28;20317;-59
2024/02/20 11:38:06;;;;;;;399.67;220.63;;;16.40;91.10;;;;;;5051052;28;20226;-59
2024/02/20 11:40:34;;;;;;;49.77;38.63;;;16.50;91.10;;;;;;5051228;28;20204;-59
2024/02/20 11:43:04;;;;;;;50.33;37.20;;;16.60;90.40;;;;;;5053267;28;20213;-59
2024/02/20 11:45:35;;;;;;;46.37;35.47;;;16.60;89.00;;;;;;5041397;28;20212;-59
2024/02/20 11:48:13;;;;;;;48.20;36.50;;;16.70;88.70;;;;;;5052472;28;20325;-59
2024/02/20 11:50:43;;;;;;;40.30;29.57;;;16.70;88.30;;;;;;5054249;28;20205;-59
2024/02/20 11:53:15;;;;;;;25.47;20.70;;;16.80;88.40;;;;;;5053861;28;20204;-59
2024/02/20 11:55:45;;;;;;;26.43;18.83;;;16.90;86.00;;;;;;5049124;28;20210;-59
2024/02/20 11:58:18;;;;;;;40.53;30.37;;;16.90;84.40;;;;;;5054292;28;20295;-60
2024/02/20 12:00:54;;;;;;;36.53;27.70;;;16.90;83.80;;;;;;5050902;28;20213;-60
2024/02/20 12:03:33;;;;;;;29.53;24.67;;;17.00;84.40;;;;;;5049977;28;20234;-59
2024/02/20 12:06:04;;;;;;;30.73;24.57;;;17.00;84.00;;;;;;5051907;28;20196;-59
2024/02/20 12:08:41;;;;;;;34.93;24.77;;;17.00;83.70;;;;;;5051078;28;20199;-59
2024/02/20 12:11:13;;;;;;;29.27;23.20;;;17.10;83.50;;;;;;5053449;28;20204;-59
2024/02/20 12:13:41;;;;;;;30.40;23.53;;;17.20;82.90;;;;;;5051732;28;20192;-59
2024/02/20 12:16:22;;;;;;;32.13;24.23;;;17.30;82.80;;;;;;5064666;28;20208;-59
2024/02/20 12:18:51;;;;;;;35.83;26.07;;;17.30;82.00;;;;;;5052620;28;20201;-59
2024/02/20 12:21:26;;;;;;;29.47;24.40;;;17.30;82.20;;;;;;5053368;28;20226;-59
2024/02/20 12:23:58;;;;;;;30.27;23.00;;;17.40;82.60;;;;;;5053212;28;20222;-58
2024/02/20 12:26:27;;;;;;;28.73;21.23;;;17.50;82.20;;;;;;5051916;28;20292;-59
2024/02/20 12:28:55;;;;;;;26.30;20.80;;;17.40;81.40;;;;;;5049385;28;20264;-59
2024/02/20 12:31:24;;;;;;;26.13;21.30;;;17.40;81.30;;;;;;5055166;28;20252;-59
2024/02/20 12:33:52;;;;;;;21.37;18.27;;;17.40;81.80;;;;;;5052278;28;20244;-59
2024/02/20 12:36:20;;;;;;;20.70;17.97;;;17.50;81.50;;;;;;5052180;28;20279;-59
2024/02/20 12:38:47;;;;;;;23.73;16.67;;;17.60;81.40;;;;;;5048027;28;20205;-59